Limestoneville, Pennsylvania
Current Conditions -  °F | °C
As of 12:53 AM on Thursday 27 Nov 2014 (Local Time) from KSEG Reporting Station
Light Snow Light Snow  
Wind Chill: 32°   Ceiling: 5500
Heat Index: 32°   Visibility: 5mi
Dew Point: 30°   Wind: 0mph
Humidity: 92%   Direction: NA
Pressure: 29.98"   Gusts: NA
Location:  41.0147°N, 76.8093°W
Report Text: KSEG 270553Z AUTO 00000KT 5SM -SN BR OVC055 00/M01 A2998 RMK AO2 SNB0458 SLP157 P0000 60001 T00001011 10006 20000 51008
Loading
Personal Weather Stations






























Interactive Weather Map New forecast layout! Learn more

10-Day Weather Forecast

Advertisements
Track Severe Weather on mobile